Latest Weather Observations for Grafton AgRS

IDN60801

Issued at 9:33 pm EST Monday 25 July 2016 (issued every 30 minutes, with the page automatically refreshed every 10 minutes)

About weather observations | Map of weather stations | Latest weather observations for NSW | Other Formats
Station Details ID: 058077 Name: GRAFTON RESEARCH STN Lat: -29.62 Lon: 152.96 Height: 25.0 m
Data from the previous 72 hours. | See also: Recent months for locations in New South Wales
Date/Time
EST
Temp
°C
App
Temp
°C
Dew
Point
°C
Rel
Hum
%
Delta-T
°C
Wind Press
QNH
hPa
Press
MSL
hPa
Rain since
9am
mm
Dir  Spd
km/h
Gust
km/h
Spd
kts
Gust
kts
25/09:30pm 12.0 8.7 2.5 52 4.1 WNW 9 13 5 7 - - 0.0
25/09:00pm 13.0 8.9 2.3 48 4.7 NW 13 17 7 9 - - 0.0
25/08:30pm 13.7 10.7 4.3 53 4.3 WNW 9 13 5 7 - - 0.0
25/08:00pm 13.5 10.9 6.1 61 3.5 WNW 9 13 5 7 - - 0.0
25/07:30pm 12.9 10.5 6.9 67 2.9 W 9 11 5 6 - - 0.0
25/07:00pm 13.5 12.7 6.6 63 3.3 CALM 0 0 0 0 - - 0.0
25/06:30pm 13.9 11.6 5.0 55 4.1 S 6 7 3 4 - - 0.0
25/06:00pm 15.0 13.4 4.7 50 4.8 SW 2 9 1 5 - - 0.0
25/05:30pm 17.3 13.4 1.3 34 7.1 WNW 11 15 6 8 - - 0.0
25/05:00pm 18.2 14.8 2.1 34 7.3 WNW 9 15 5 8 - - 0.0
25/04:30pm 19.8 15.6 1.7 30 8.3 W 13 20 7 11 - - 0.0
25/04:00pm 20.9 16.5 2.7 30 8.5 W 15 20 8 11 - - 0.0
25/03:30pm 21.5 18.6 4.6 33 8.3 WNW 9 15 5 8 - - 0.0
25/03:00pm 21.3 18.4 4.8 34 8.1 N 9 13 5 7 - - 0.0
25/02:30pm 21.3 17.6 4.4 33 8.2 WNW 13 20 7 11 - - 0.0
25/02:00pm 20.6 16.3 3.3 32 8.2 WNW 15 26 8 14 - - 0.0
25/01:30pm 20.3 15.9 4.8 36 7.6 WNW 17 26 9 14 - - 0.0
25/01:00pm 19.4 15.7 4.7 38 7.1 NNW 13 19 7 10 - - 0.0
25/12:30pm 19.0 15.5 5.5 41 6.6 N 13 20 7 11 - - 0.0
25/12:00pm 16.9 14.0 4.6 44 5.8 NW 9 17 5 9 - - 0.0
25/11:30am 16.6 13.3 4.3 44 5.8 NW 11 17 6 9 - - 0.0
25/11:00am 16.0 13.2 5.3 49 5.1 NW 9 13 5 7 - - 0.0
25/10:30am 15.8 12.9 4.5 47 5.3 NW 9 15 5 8 - - 0.0
25/10:00am 14.6 12.2 5.4 54 4.3 WNW 7 11 4 6 - - 0.0
25/09:30am 14.1 11.5 6.0 58 3.9 NW 9 13 5 7 - - 0.0
25/09:00am 12.1 9.5 5.9 66 2.9 NNW 9 15 5 8 - - 0.0
25/08:30am 10.2 7.0 5.2 71 2.3 NW 11 17 6 9 - - 0.0
25/08:00am 9.3 5.7 5.1 75 1.9 NW 13 20 7 11 - - 0.0
25/07:30am 8.7 4.3 4.5 75 1.9 NW 17 20 9 11 - - 0.0
25/07:00am 8.0 4.3 4.2 77 1.7 NW 13 20 7 11 - - 0.0
25/06:30am 8.2 5.7 3.9 74 1.9 NW 6 11 3 6 - - 0.0
25/06:00am 10.4 7.1 2.7 59 3.3 NW 9 11 5 6 - - 0.0
25/05:30am 10.4 7.2 3.0 60 3.2 NW 9 11 5 6 - - 0.0
25/05:00am 9.7 7.4 2.8 62 3.0 W 4 9 2 5 - - 0.0
25/04:30am 10.2 8.2 2.3 58 3.4 WNW 2 7 1 4 - - 0.0
25/04:00am 11.1 7.0 2.4 55 3.7 WSW 13 17 7 9 - - 0.0
25/03:30am 11.3 6.5 2.6 55 3.8 WSW 17 22 9 12 - - 0.0
25/03:00am 10.6 7.0 2.7 58 3.4 WSW 11 13 6 7 - - 0.0
25/02:30am 11.0 7.4 3.1 58 3.4 SW 11 15 6 8 - - 0.0
25/02:00am 12.3 8.3 3.0 53 4.1 SW 13 19 7 10 - - 0.0
25/01:30am 12.7 7.5 3.4 53 4.1 SW 20 28 11 15 - - 0.0
25/01:00am 12.5 8.6 3.5 54 4.0 SW 13 19 7 10 - - 0.0
25/12:30am 12.4 8.9 3.6 55 3.9 SW 11 15 6 8 - - 0.0
25/12:00am 12.3 9.7 6.1 66 2.9 WNW 9 13 5 7 - - 0.0
 
Date/Time
EST
Temp
°C
App
Temp
°C
Dew
Point
°C
Rel
Hum
%
Delta-T
°C
Wind Press
QNH
hPa
Press
MSL
hPa
Rain since
9am
mm
Dir  Spd
km/h
Gust
km/h
Spd
kts
Gust
kts
24/11:30pm 12.6 10.8 7.3 70 2.6 W 6 9 3 5 - - 0.0
24/11:00pm 11.8 10.0 8.1 78 1.8 SW 7 9 4 5 - - 0.0
24/10:30pm 12.0 10.2 7.9 76 2.0 W 7 9 4 5 - - 0.0
24/10:00pm 12.0 10.4 8.1 77 1.9 S 6 7 3 4 - - 0.0
24/09:30pm 12.4 11.0 8.7 78 1.8 SW 6 9 3 5 - - 0.0
24/09:00pm 13.2 11.6 7.9 70 2.6 NW 6 9 3 5 - - 0.0
24/08:30pm 13.1 12.5 7.5 69 2.7 CALM 0 0 0 0 - - 0.0
24/08:00pm 13.4 12.0 8.7 73 2.4 N 6 7 3 4 - - 0.0
24/07:30pm 13.5 12.9 7.5 67 2.9 CALM 0 0 0 0 - - 0.0
24/07:00pm 13.9 12.1 7.9 67 3.0 E 7 9 4 5 - - 0.0
24/06:30pm 14.0 13.4 7.5 65 3.2 CALM 0 0 0 0 - - 0.0
24/06:00pm 14.2 12.6 7.9 66 3.1 S 6 7 3 4 - - 0.0
24/05:30pm 14.5 12.3 8.0 65 3.2 SW 9 11 5 6 - - 0.0
24/05:00pm 15.6 15.0 7.4 58 4.1 CALM 0 0 0 0 - - 0.0
24/04:30pm 16.1 14.9 8.1 59 4.0 W 4 6 2 3 - - 0.0
24/04:00pm 16.4 15.3 8.4 59 4.1 WNW 4 6 2 3 - - 0.0
24/03:30pm 16.7 15.0 7.4 54 4.7 WNW 6 7 3 4 - - 0.0
24/03:00pm 16.9 14.7 6.4 50 5.2 N 7 11 4 6 - - 0.0
24/02:30pm 17.3 14.8 6.5 49 5.3 N 9 13 5 7 - - 0.0
24/02:00pm 17.6 16.1 6.8 49 5.4 NNW 4 15 2 8 - - 0.0
24/01:30pm 16.9 14.4 4.9 45 5.7 WNW 7 13 4 7 - - 0.0
24/01:00pm 17.2 14.2 4.2 42 6.1 W 9 13 5 7 - - 0.0
24/12:30pm 17.0 14.5 3.7 41 6.2 SW 6 13 3 7 - - 0.0
24/12:00pm 17.3 14.6 3.6 40 6.4 W 7 13 4 7 - - 0.0
24/11:30am 16.8 13.9 2.8 39 6.4 S 7 13 4 7 - - 0.0
24/11:00am 16.5 13.5 2.2 38 6.4 SW 7 13 4 7 - - 0.0
24/10:30am 16.4 13.4 4.1 44 5.7 WSW 9 13 5 7 - - 0.0
24/10:00am 15.0 12.2 5.0 51 4.7 W 9 13 5 7 - - 0.0
24/09:30am 14.1 11.5 4.4 52 4.5 W 7 11 4 6 - - 0.0
24/09:00am 13.6 10.7 4.5 54 4.2 W 9 11 5 6 - - 0.0
24/08:30am 13.0 10.5 4.7 57 3.8 WSW 7 11 4 6 - - 0.0
24/08:00am 12.0 11.0 5.4 64 3.1 CALM 0 6 0 3 - - 0.0
24/07:30am 11.7 9.1 4.0 59 3.4 WNW 7 9 4 5 - - 0.0
24/07:00am 11.2 8.7 3.7 60 3.3 W 6 11 3 6 - - 0.0
24/06:30am 11.9 9.1 2.9 54 3.9 WNW 7 11 4 6 - - 0.0
24/06:00am 11.9 7.9 2.9 54 3.9 WSW 13 20 7 11 - - 0.0
24/05:30am 12.2 8.2 2.9 53 4.1 W 13 19 7 10 - - 0.0
24/05:00am 12.5 8.5 2.9 52 4.2 W 13 15 7 8 - - 0.0
24/04:30am 12.8 8.4 2.6 50 4.5 WSW 15 20 8 11 - - 0.0
24/04:00am 13.0 8.3 3.1 51 4.4 W 17 22 9 12 - - 0.0
24/03:30am 13.3 9.0 3.1 50 4.5 W 15 20 8 11 - - 0.0
24/03:00am 13.5 9.9 2.7 48 4.8 W 11 19 6 10 - - 0.0
24/02:30am 13.9 8.2 3.1 48 4.8 W 22 30 12 16 - - 0.0
24/02:00am 14.0 9.4 3.5 49 4.7 W 17 22 9 12 - - 0.0
24/01:30am 14.2 9.5 3.4 48 4.9 W 17 22 9 12 - - 0.0
24/01:00am 14.4 9.8 3.5 48 4.9 W 17 24 9 13 - - 0.0
24/12:30am 14.4 10.5 3.2 47 5.0 WNW 13 19 7 10 - - 0.0
24/12:00am 14.6 9.6 3.7 48 5.0 WNW 19 26 10 14 - - 0.0
 
Date/Time
EST
Temp
°C
App
Temp
°C
Dew
Point
°C
Rel
Hum
%
Delta-T
°C
Wind Press
QNH
hPa
Press
MSL
hPa
Rain since
9am
mm
Dir  Spd
km/h
Gust
km/h
Spd
kts
Gust
kts
23/11:30pm 15.0 10.7 3.5 46 5.2 WNW 15 20 8 11 - - 0.0
23/11:00pm 14.9 9.9 3.7 47 5.1 W 19 28 10 15 - - 0.0
23/10:30pm 14.7 11.5 3.2 46 5.2 WNW 9 11 5 6 - - 0.0
23/10:00pm 14.7 10.3 2.9 45 5.3 W 15 20 8 11 - - 0.0
23/09:30pm 15.3 10.1 2.5 42 5.7 W 19 28 10 15 - - 0.0
23/09:00pm 15.4 11.0 2.6 42 5.7 W 15 20 8 11 - - 0.0
23/08:30pm 16.8 11.9 2.0 37 6.6 WNW 17 24 9 13 - - 0.0
23/08:00pm 17.1 12.1 1.5 35 6.9 WNW 17 22 9 12 - - 0.0
23/07:30pm 17.6 12.0 1.2 33 7.3 W 20 30 11 16 - - 0.0
23/07:00pm 18.7 11.9 0.8 30 8.0 W 26 39 14 21 - - 0.0
23/06:30pm 19.4 12.5 0.4 28 8.4 WNW 26 35 14 19 - - 0.0
23/06:00pm 19.9 14.3 0.9 28 8.5 WNW 20 26 11 14 - - 0.0
23/05:30pm 21.1 15.4 0.3 25 9.3 WNW 20 28 11 15 - - 0.0
23/05:00pm 22.0 15.9 0.5 24 9.8 WNW 22 32 12 17 - - 0.0
23/04:30pm 23.3 18.2 1.0 23 10.3 WNW 17 24 9 13 - - 0.0
23/04:00pm 24.1 17.6 0.4 21 10.9 W 24 35 13 19 - - 0.0
23/03:30pm 24.9 19.1 2.4 23 10.8 WNW 22 35 12 19 - - 0.0
23/03:00pm 25.7 20.0 3.0 23 11.1 WNW 22 41 12 22 - - 0.0
23/02:33pm 26.2 19.3 2.8 22 11.4 WNW 28 46 15 25 - - 0.0
23/02:30pm 26.3 19.1 0.9 19 12.0 WNW 28 43 15 23 - - 0.0
23/02:20pm 26.4 19.6 3.0 22 11.5 WNW 28 46 15 25 - - 0.0
23/02:00pm 27.1 20.9 4.2 23 11.6 WNW 26 46 14 25 - - 0.0
23/01:54pm 26.8 20.2 4.0 23 11.4 WNW 28 46 15 25 - - 0.0
23/01:30pm 26.9 21.5 6.3 27 10.8 WNW 24 37 13 20 - - 0.0
23/01:00pm 27.0 21.0 6.9 28 10.6 W 28 43 15 23 - - 0.0
23/12:30pm 27.1 21.9 9.0 32 9.9 WNW 26 39 14 21 - - 0.0
23/12:06pm 27.2 21.3 10.4 35 9.4 WNW 32 50 17 27 - - 0.0
23/12:00pm 26.7 19.7 8.6 32 9.8 WNW 35 50 19 27 - - 0.0
23/11:30am 26.7 20.2 10.4 36 9.1 WNW 35 57 19 31 - - 0.0
23/11:00am 26.6 20.0 11.5 39 8.6 WNW 37 59 20 32 - - 0.0
23/10:45am 26.7 22.1 12.4 41 8.3 WNW 28 50 15 27 - - 0.0
23/10:30am 26.6 22.6 13.0 43 8.0 WNW 26 41 14 22 - - 0.0
23/10:00am 26.6 23.4 13.0 43 8.0 WNW 22 35 12 19 - - 0.0
23/09:30am 26.1 22.2 13.2 44 7.6 WNW 26 35 14 19 - - 0.0
23/09:00am 25.7 23.1 13.2 46 7.3 NW 19 32 10 17 - - 0.0
23/08:30am 24.1 24.0 16.1 61 4.9 N 11 19 6 10 - - 0.0
23/08:00am 23.8 23.8 15.3 59 5.1 N 9 15 5 8 - - 0.0
23/07:30am 23.1 23.0 14.9 60 4.9 NNW 9 15 5 8 - - 0.0
23/07:00am 23.1 22.2 14.9 60 4.9 NNW 13 19 7 10 - - 0.0
23/06:30am 23.4 22.8 14.7 58 5.2 NNW 11 20 6 11 - - 0.0
23/06:00am 24.0 23.4 14.7 56 5.5 NNW 11 20 6 11 - - 0.0
23/05:30am 24.5 23.5 14.6 54 5.9 NNW 13 22 7 12 - - 0.0
23/05:00am 24.4 22.8 15.1 56 5.6 NW 17 33 9 18 - - 0.0
23/04:30am 24.0 22.1 15.2 58 5.3 NW 19 28 10 15 - - 0.0
23/04:00am 22.8 23.2 17.3 71 3.4 NNW 11 24 6 13 - - 0.0
23/03:30am 18.3 18.4 15.6 84 1.6 NE 9 17 5 9 - - 0.0
23/03:00am 18.4 18.1 15.5 83 1.7 NE 11 17 6 9 - - 0.0
23/02:30am 19.0 18.0 15.5 80 2.1 N 15 24 8 13 - - 0.0
23/02:00am 19.4 18.8 15.7 79 2.2 N 13 19 7 10 - - 0.0
23/01:30am 19.4 19.2 15.7 79 2.2 N 11 17 6 9 - - 0.0
23/01:00am 19.4 19.3 15.9 80 2.1 N 11 17 6 9 - - 0.0
23/12:30am 19.3 19.9 15.8 80 2.1 N 7 15 4 8 - - 0.0
23/12:00am 19.8 19.2 15.7 77 2.4 N 13 19 7 10 - - 0.0
 
Date/Time
EST
Temp
°C
App
Temp
°C
Dew
Point
°C
Rel
Hum
%
Delta-T
°C
Wind Press
QNH
hPa
Press
MSL
hPa
Rain since
9am
mm
Dir  Spd
km/h
Gust
km/h
Spd
kts
Gust
kts
22/11:30pm 20.2 20.0 15.8 76 2.6 N 11 19 6 10 - - 0.0
22/11:00pm 20.1 20.3 15.7 76 2.6 N 9 13 5 7 - - 0.0
22/10:30pm 19.9 19.6 15.5 76 2.6 NNE 11 17 6 9 - - 0.0
22/10:00pm 20.1 20.1 15.3 74 2.8 N 9 13 5 7 - - 0.0

Other Formats:

Comma delimited format used in spreadsheet applications
http://www.bom.gov.au/fwo/IDN60801/IDN60801.95571.axf

JavaScript Object Notation format (JSON) in row-major order
http://www.bom.gov.au/fwo/IDN60801/IDN60801.95571.json